Time;durP1;ratioP1;P1;durP2;ratioP2;P2;SDS_P1;SDS_P2;PMS_P1;PMS_P2;Temp;Humidity;BMP_temperature;BMP_pressure;BME280_temperature;BME280_humidity;BME280_pressure;Samples;Min_cycle;Max_cycle;Signal;HPM_P1;HPM_P2
2022/04/27 17:30:37;;;;;;;6.38;4.47;;;;;;;21.31;27.40;102067.13;5064900;27;20200;-72
2022/04/27 17:33:06;;;;;;;6.35;4.47;;;;;;;21.32;27.27;102059.72;5054678;28;20722;-75
2022/04/27 17:35:32;;;;;;;7.78;4.53;;;;;;;21.32;27.19;102068.88;5053158;28;20037;-73
2022/04/27 17:38:00;;;;;;;7.80;5.13;;;;;;;21.33;27.37;102070.59;5042227;28;20128;-73
2022/04/27 17:40:27;;;;;;;6.97;4.80;;;;;;;21.33;27.25;102076.13;5044667;28;20118;-73
2022/04/27 17:42:55;;;;;;;6.22;4.45;;;;;;;21.33;27.35;102080.81;5040755;28;20361;-73
2022/04/27 17:45:42;;;;;;;6.70;4.95;;;;;;;21.31;27.34;102078.19;5045830;28;20048;-72
2022/04/27 17:48:08;;;;;;;7.85;4.72;;;;;;;21.31;27.56;102089.22;5042013;28;20053;-73
2022/04/27 17:50:35;;;;;;;6.53;4.50;;;;;;;21.29;26.99;102082.97;5043570;28;20467;-73
2022/04/27 17:53:01;;;;;;;7.00;4.90;;;;;;;21.29;27.47;102090.38;5044383;28;20148;-73
2022/04/27 17:55:28;;;;;;;5.78;4.28;;;;;;;21.27;27.56;102087.75;5048135;28;20091;-72
2022/04/27 17:57:55;;;;;;;6.40;4.65;;;;;;;21.26;27.55;102097.06;5075303;28;20068;-73
2022/04/27 18:00:21;;;;;;;8.07;4.60;;;;;;;21.24;27.34;102099.97;5051730;28;20132;-73
2022/04/27 18:02:52;;;;;;;7.38;4.40;;;;;;;21.22;27.59;102098.38;5044926;28;20483;-72
2022/04/27 18:05:21;;;;;;;6.63;4.00;;;;;;;21.19;27.13;102096.75;5046485;28;20041;-72
2022/04/27 18:07:49;;;;;;;6.78;4.22;;;;;;;21.18;27.19;102096.88;5049991;28;20072;-72
2022/04/27 18:10:16;;;;;;;6.10;4.10;;;;;;;21.12;27.61;102101.06;5042691;28;20049;-72
2022/04/27 18:12:43;;;;;;;7.70;4.38;;;;;;;21.11;27.19;102103.97;5040950;28;20128;-73
2022/04/27 18:15:10;;;;;;;5.55;3.50;;;;;;;21.07;27.53;102110.78;5049675;28;20111;-72
2022/04/27 18:17:37;;;;;;;5.53;3.47;;;;;;;21.03;27.27;102110.19;5042114;28;20076;-72
2022/04/27 18:20:06;;;;;;;6.57;4.20;;;;;;;21.02;27.38;102121.38;5052167;28;20372;-73
2022/04/27 18:22:36;;;;;;;6.47;3.70;;;;;;;21.01;27.10;102116.84;5045444;28;20049;-72
2022/04/27 18:25:04;;;;;;;5.90;3.60;;;;;;;20.96;27.21;102114.53;5082246;28;20069;-72
2022/04/27 18:27:32;;;;;;;6.20;3.90;;;;;;;20.94;27.20;102119.31;5046178;28;20578;-73
2022/04/27 18:29:59;;;;;;;6.28;3.55;;;;;;;20.92;27.22;102123.22;5048975;28;20131;-72
2022/04/27 18:32:26;;;;;;;5.93;3.97;;;;;;;20.88;27.13;102128.16;5051910;28;20102;-72
2022/04/27 18:34:52;;;;;;;5.68;3.40;;;;;;;20.85;27.38;102126.53;5054623;28;20134;-73
2022/04/27 18:37:21;;;;;;;5.38;3.50;;;;;;;20.84;27.33;102132.19;5039081;28;20049;-73
2022/04/27 18:39:51;;;;;;;6.32;3.83;;;;;;;20.85;27.68;102139.44;5045087;28;20049;-72
2022/04/27 18:42:20;;;;;;;6.13;3.50;;;;;;;20.79;27.57;102137.25;5029998;28;20459;-72
2022/04/27 18:50:18;;;;;;;5.80;3.53;;;;;;;20.67;27.72;102141.97;5035459;28;20666;-72
2022/04/27 18:52:46;;;;;;;6.95;3.42;;;;;;;20.66;27.42;102143.00;5028817;28;20211;-72
2022/04/27 18:55:13;;;;;;;7.45;3.83;;;;;;;20.64;27.64;102152.44;5029752;28;20053;-73
2022/04/27 18:57:41;;;;;;;5.25;3.35;;;;;;;20.61;27.53;102153.56;5028045;28;20057;-71
2022/04/27 19:00:08;;;;;;;6.75;3.50;;;;;;;20.59;27.57;102150.06;5031214;28;20090;-72
2022/04/27 19:02:35;;;;;;;6.70;3.78;;;;;;;20.56;27.80;102153.09;5030923;28;20053;-73
2022/04/27 19:05:06;;;;;;;6.63;3.92;;;;;;;20.55;28.00;102161.50;5030941;28;20085;-72
2022/04/27 19:07:32;;;;;;;8.25;3.92;;;;;;;20.51;27.32;102161.78;5028312;28;20048;-72
2022/04/27 19:10:00;;;;;;;6.47;4.00;;;;;;;20.50;27.96;102167.44;5034142;28;20125;-72
2022/04/27 19:12:29;;;;;;;6.30;4.00;;;;;;;20.47;27.52;102165.81;5029650;28;20144;-73
2022/04/27 19:14:57;;;;;;;6.15;3.67;;;;;;;20.44;27.71;102174.38;5033466;28;20114;-72
2022/04/27 19:17:23;;;;;;;5.47;3.72;;;;;;;20.42;27.82;102175.53;5028192;28;20052;-73
2022/04/27 19:19:51;;;;;;;6.50;3.67;;;;;;;20.40;27.75;102177.53;5029428;28;20045;-73
2022/04/27 19:22:20;;;;;;;5.47;3.60;;;;;;;20.38;27.59;102177.66;5035536;28;20140;-72
2022/04/27 19:24:47;;;;;;;7.63;3.70;;;;;;;20.35;28.18;102179.81;5029455;28;20487;-72
2022/04/27 19:27:15;;;;;;;5.95;3.78;;;;;;;20.32;27.87;102177.31;5029138;28;20119;-73
2022/04/27 19:29:42;;;;;;;4.90;3.40;;;;;;;20.30;27.90;102182.94;5033069;28;20050;-72
2022/04/27 19:32:09;;;;;;;5.97;3.40;;;;;;;20.27;27.89;102179.56;5025008;28;20170;-72
2022/04/27 19:34:37;;;;;;;5.95;3.60;;;;;;;20.25;28.37;102188.00;5065783;28;20102;-73
2022/04/27 19:37:06;;;;;;;5.68;3.67;;;;;;;20.25;28.37;102192.63;5028419;28;20057;-72
2022/04/27 19:39:33;;;;;;;5.55;3.58;;;;;;;20.21;28.03;102188.38;5029171;28;20037;-73
2022/04/27 19:42:00;;;;;;;4.97;3.58;;;;;;;20.18;28.02;102192.25;5033022;28;20137;-73
2022/04/27 19:44:27;;;;;;;5.93;3.67;;;;;;;20.16;28.33;102190.66;5032211;28;20082;-72
2022/04/27 19:46:54;;;;;;;5.35;3.28;;;;;;;20.12;28.21;102188.16;5042321;28;20172;-72
2022/04/27 19:49:21;;;;;;;4.82;3.08;;;;;;;20.09;27.99;102190.31;5028428;28;20568;-71
2022/04/27 19:51:50;;;;;;;5.65;3.20;;;;;;;20.07;28.19;102195.97;5057765;28;20049;-72
2022/04/27 19:54:18;;;;;;;5.18;3.35;;;;;;;20.05;28.32;102192.47;5029984;28;20099;-71
2022/04/27 19:56:45;;;;;;;4.90;3.30;;;;;;;20.02;28.63;102187.19;5029222;28;20418;-71
2022/04/27 19:59:15;;;;;;;5.82;3.55;;;;;;;19.99;28.47;102198.50;5031098;28;20041;-72
2022/04/27 20:01:43;;;;;;;6.30;3.75;;;;;;;19.97;28.27;102199.63;5031243;28;20133;-71
2022/04/27 20:04:10;;;;;;;5.45;3.40;;;;;;;19.94;28.65;102194.38;5031006;28;20044;-72
2022/04/27 20:06:37;;;;;;;7.18;4.10;;;;;;;19.91;28.58;102213.94;5028310;28;20048;-71
2022/04/27 20:09:07;;;;;;;5.25;3.50;;;;;;;19.88;28.27;102215.06;5028820;28;20130;-72
2022/04/27 20:11:35;;;;;;;4.68;3.35;;;;;;;19.87;28.42;102216.06;5055685;28;20516;-72
2022/04/27 20:14:03;;;;;;;4.35;3.20;;;;;;;19.85;28.91;102220.81;5033556;28;20075;-71
2022/04/27 20:16:30;;;;;;;5.90;3.15;;;;;;;19.81;28.73;102212.97;5026134;28;20134;-72
2022/04/27 20:18:57;;;;;;;5.53;3.53;;;;;;;19.80;28.51;102220.34;5028827;28;20050;-71
2022/04/27 20:21:23;;;;;;;5.35;3.13;;;;;;;19.76;28.43;102228.00;5028976;28;21680;-72
2022/04/27 20:23:50;;;;;;;4.78;3.20;;;;;;;19.74;28.56;102224.50;5028892;28;20091;-71
2022/04/27 20:26:17;;;;;;;5.78;3.17;;;;;;;19.71;28.68;102227.50;5030159;28;20124;-71
2022/04/27 20:28:44;;;;;;;4.93;2.97;;;;;;;19.69;28.54;102228.63;5026669;28;20053;-71
2022/04/27 20:31:12;;;;;;;5.18;3.28;;;;;;;19.65;28.41;102221.66;5029987;28;20045;-72
2022/04/27 20:33:38;;;;;;;5.03;3.28;;;;;;;19.62;28.59;102230.16;5031827;28;20056;-71
2022/04/27 20:36:05;;;;;;;5.38;3.55;;;;;;;19.58;28.55;102235.06;5034241;28;20052;-71
2022/04/27 20:38:32;;;;;;;4.75;3.13;;;;;;;19.56;28.79;102236.19;5035707;28;20069;-71
2022/04/27 20:40:59;;;;;;;5.78;3.00;;;;;;;19.52;28.68;102237.47;5027805;28;20068;-71
2022/04/27 20:43:25;;;;;;;5.22;3.08;;;;;;;19.49;28.67;102245.97;5026066;28;20129;-71
2022/04/27 20:45:52;;;;;;;5.00;3.10;;;;;;;19.46;28.53;102246.16;5026503;28;20057;-72
2022/04/27 20:48:21;;;;;;;4.97;3.28;;;;;;;19.41;28.59;102246.56;5029478;28;20081;-71
2022/04/27 20:50:48;;;;;;;5.55;3.50;;;;;;;19.39;28.55;102252.19;5025988;28;20124;-72
2022/04/27 20:53:15;;;;;;;7.90;3.03;;;;;;;19.36;28.91;102251.56;5027136;28;20053;-74
2022/04/27 20:55:41;;;;;;;5.07;3.53;;;;;;;19.32;28.74;102247.31;5067108;28;20122;-74
2022/04/27 20:58:08;;;;;;;4.55;3.30;;;;;;;19.29;29.00;102250.31;5026804;28;20091;-75
2022/04/27 21:00:35;;;;;;;4.63;3.10;;;;;;;19.25;29.03;102251.56;5029916;28;20454;-75
2022/04/27 21:03:03;;;;;;;4.53;3.17;;;;;;;19.23;28.57;102259.06;5028851;28;20041;-74
2022/04/27 21:05:34;;;;;;;4.60;3.17;;;;;;;19.14;29.06;102251.56;5028245;28;20142;-74
2022/04/27 21:08:01;;;;;;;5.80;3.17;;;;;;;19.12;28.92;102246.16;5031766;28;20115;-74
2022/04/27 21:10:28;;;;;;;4.97;3.08;;;;;;;19.08;28.82;102244.66;5031354;28;20091;-74
2022/04/27 21:12:56;;;;;;;4.65;2.95;;;;;;;19.06;29.14;102252.16;5025404;28;20051;-74
2022/04/27 21:15:22;;;;;;;4.93;3.00;;;;;;;19.02;29.06;102248.78;5029253;28;20482;-73
2022/04/27 21:17:49;;;;;;;5.43;3.05;;;;;;;18.99;29.17;102246.28;5031540;28;20080;-73
2022/04/27 21:20:16;;;;;;;5.88;3.22;;;;;;;18.96;28.86;102249.28;5027117;28;20121;-74
2022/04/27 21:22:43;;;;;;;4.38;3.10;;;;;;;18.94;28.96;102261.44;5028848;28;20091;-74
2022/04/27 21:25:10;;;;;;;5.00;2.90;;;;;;;18.91;29.01;102258.91;5035066;28;20080;-74
2022/04/27 21:27:37;;;;;;;5.32;3.05;;;;;;;18.88;28.93;102261.91;5029510;28;20128;-72
2022/04/27 21:30:06;;;;;;;4.55;2.92;;;;;;;18.84;29.21;102260.41;5058343;28;20050;-72
2022/04/27 21:32:33;;;;;;;5.57;3.00;;;;;;;18.80;29.17;102256.13;5024803;28;20053;-72
2022/04/27 21:34:59;;;;;;;4.43;2.90;;;;;;;18.78;29.32;102261.75;5033753;28;20653;-72
2022/04/27 21:37:26;;;;;;;4.57;2.72;;;;;;;18.75;29.26;102269.38;5058311;28;20133;-72
2022/04/27 21:39:52;;;;;;;5.93;2.95;;;;;;;18.72;29.13;102270.50;5028608;28;20120;-72
2022/04/27 21:42:19;;;;;;;6.20;3.40;;;;;;;18.70;28.74;102277.09;5022432;28;20132;-72
2022/04/27 21:44:46;;;;;;;4.80;2.40;;;;;;;18.69;28.92;102283.63;5026536;28;20133;-72
2022/04/27 21:47:12;;;;;;;5.43;2.72;;;;;;;18.67;29.47;102283.75;5026048;28;20042;-72
2022/04/27 21:49:39;;;;;;;4.25;2.58;;;;;;;18.66;29.18;102287.47;5025542;28;20053;-72
2022/04/27 21:52:07;;;;;;;5.45;2.95;;;;;;;18.66;29.45;102289.34;5030324;28;20076;-72
2022/04/27 21:54:34;;;;;;;4.68;2.75;;;;;;;18.65;29.36;102293.09;5029936;28;20677;-72
2022/04/27 21:57:01;;;;;;;4.07;2.63;;;;;;;18.65;29.25;102287.59;5032824;28;20421;-72
2022/04/27 21:59:27;;;;;;;4.40;2.70;;;;;;;18.64;29.27;102294.97;5034156;28;20134;-72
2022/04/27 22:01:54;;;;;;;5.13;2.60;;;;;;;18.63;29.23;102293.22;5027851;28;20136;-72
2022/04/27 22:04:21;;;;;;;6.13;2.70;;;;;;;18.62;29.06;102297.84;5035412;28;20088;-72
2022/04/27 22:06:56;;;;;;;3.88;2.53;;;;;;;18.63;29.61;102291.34;5034266;28;20053;-72
2022/04/27 22:09:25;;;;;;;4.13;2.80;;;;;;;18.59;29.65;102303.59;5023284;28;20576;-72
2022/04/27 22:11:53;;;;;;;3.88;2.45;;;;;;;18.58;29.27;102310.09;5032425;28;20524;-72
2022/04/27 22:14:21;;;;;;;4.13;2.85;;;;;;;18.56;29.51;102300.16;5035281;28;20056;-72
2022/04/27 22:16:49;;;;;;;3.78;2.88;;;;;;;18.55;29.68;102302.03;5036840;28;20152;-72
2022/04/27 22:19:17;;;;;;;5.18;3.00;;;;;;;18.52;29.23;102302.28;5031606;28;20418;-72
2022/04/27 22:21:43;;;;;;;4.15;2.58;;;;;;;18.51;29.71;102296.91;5028185;28;20077;-72
2022/04/27 22:24:11;;;;;;;4.68;2.63;;;;;;;18.48;29.35;102308.13;5031404;28;20049;-73
2022/04/27 22:26:38;;;;;;;4.57;2.88;;;;;;;18.46;29.52;102305.50;5031179;28;20057;-72
2022/04/27 22:29:05;;;;;;;4.57;2.90;;;;;;;18.44;29.87;102307.50;5030232;28;20085;-72
2022/04/27 22:31:35;;;;;;;4.80;2.63;;;;;;;18.42;29.77;102303.09;5027517;28;20685;-72
2022/04/27 22:34:02;;;;;;;6.40;3.10;;;;;;;18.39;29.26;102306.09;5035285;28;20048;-72
2022/04/27 22:36:29;;;;;;;4.07;2.75;;;;;;;18.38;29.47;102302.44;5030188;28;20459;-72
2022/04/27 22:38:58;;;;;;;5.05;2.60;;;;;;;18.35;29.27;102307.31;5036992;28;20053;-72
2022/04/27 22:41:25;;;;;;;4.30;2.75;;;;;;;18.33;29.54;102310.19;5030364;28;20060;-72
2022/04/27 22:43:51;;;;;;;6.40;2.92;;;;;;;18.31;29.53;102314.91;5036539;28;20063;-72
2022/04/27 22:46:18;;;;;;;4.78;3.08;;;;;;;18.30;29.77;102307.66;5031537;28;20084;-72
2022/04/27 22:48:46;;;;;;;4.53;2.90;;;;;;;18.29;29.74;102305.91;5032972;28;20331;-72
2022/04/27 22:51:13;;;;;;;4.47;2.80;;;;;;;18.25;29.68;102313.53;5034588;28;20052;-72
2022/04/27 22:53:40;;;;;;;4.47;2.65;;;;;;;18.23;29.73;102320.13;5040354;28;20187;-72
2022/04/27 22:56:07;;;;;;;5.57;3.13;;;;;;;18.22;29.74;102310.13;5027664;28;20534;-72
2022/04/27 22:58:33;;;;;;;5.68;2.80;;;;;;;18.20;29.52;102315.72;5033847;28;20144;-73
2022/04/27 23:01:00;;;;;;;4.65;2.80;;;;;;;18.19;29.26;102318.63;5031652;28;20857;-72
2022/04/27 23:03:27;;;;;;;4.35;2.72;;;;;;;18.17;29.93;102318.72;5028988;28;20481;-72
2022/04/27 23:05:54;;;;;;;5.60;2.90;;;;;;;18.16;29.53;102321.59;5028389;28;20056;-72
2022/04/27 23:11:10;;;;;;;4.57;2.53;;;;;;;18.10;29.75;102314.69;5033256;28;20046;-73
2022/04/27 23:13:37;;;;;;;5.90;2.78;;;;;;;18.09;29.62;102315.69;5030644;28;20061;-72
2022/04/27 23:16:07;;;;;;;5.28;2.60;;;;;;;18.11;29.77;102323.81;5034688;28;20124;-72
2022/04/27 23:18:38;;;;;;;4.50;2.88;;;;;;;18.08;29.66;102330.41;5028468;28;20068;-72
2022/04/27 23:21:06;;;;;;;4.53;2.88;;;;;;;18.07;29.32;102328.66;5033930;28;20057;-72
2022/04/27 23:23:34;;;;;;;6.15;2.97;;;;;;;18.05;29.65;102321.50;5026466;28;20120;-72
2022/04/27 23:26:04;;;;;;;4.50;3.40;;;;;;;18.06;29.54;102323.25;5028283;28;20129;-72
2022/04/27 23:28:31;;;;;;;4.38;2.63;;;;;;;18.02;29.88;102324.50;5034751;28;20523;-72
2022/04/27 23:30:59;;;;;;;4.45;3.08;;;;;;;18.02;29.94;102324.50;5029093;28;20580;-73
2022/04/27 23:33:26;;;;;;;4.60;2.95;;;;;;;17.99;29.80;102324.72;5029472;28;20136;-73
2022/04/27 23:35:54;;;;;;;5.07;3.03;;;;;;;17.96;29.83;102328.56;5036592;28;20084;-72
2022/04/27 23:38:22;;;;;;;4.07;2.85;;;;;;;17.97;29.77;102334.94;5033432;28;20598;-72
2022/04/27 23:40:49;;;;;;;5.55;2.85;;;;;;;17.93;29.54;102334.31;5027392;28;20046;-72
2022/04/27 23:43:16;;;;;;;4.95;2.83;;;;;;;17.92;29.97;102332.56;5033327;28;20128;-72
2022/04/27 23:45:43;;;;;;;5.57;2.95;;;;;;;17.90;29.70;102333.66;5028670;28;20045;-72
2022/04/27 23:48:10;;;;;;;4.82;3.33;;;;;;;17.87;29.65;102330.13;5024199;28;20103;-72
2022/04/27 23:50:37;;;;;;;4.63;2.58;;;;;;;17.87;29.84;102329.28;5029909;28;20075;-73
2022/04/27 23:53:05;;;;;;;4.82;2.78;;;;;;;17.86;30.00;102335.75;5028905;28;20128;-73
2022/04/27 23:55:32;;;;;;;4.45;3.00;;;;;;;17.83;29.80;102331.38;5031261;28;20112;-72
2022/04/27 23:57:59;;;;;;;5.70;3.40;;;;;;;17.80;29.83;102327.94;5026444;28;20041;-72
